Avon, Montana
Current Conditions -  °F | °C
As of 9:53 PM on Wednesday 22 Oct 2014 (Local Time) from KHLN Reporting Station
Clear Clear  
Wind Chill: 56°   Ceiling: Unl
Heat Index: 56°   Visibility: 10mi
Dew Point: 31°   Wind: 10mph
Humidity: 39%   Direction: 210°SSW
Pressure: 29.94"   Gusts: 17mph
Location:  46.59°N, 112.61°W
Report Text: KHLN 230353Z AUTO 21009G15KT 10SM CLR 13/M01 A2994 RMK AO2 SLP152 T01331006 TSNO
Loading
Personal Weather Stations






























Interactive Weather Map
Tropical Storm Tracking
New forecast layout! Learn more

10-Day Weather Forecast

Advertisements
Track Severe Weather on mobile